Sidnaw, Michigan
Current Conditions -  °F | °C
As of 3:35 AM on Monday 26 Jan 2015 (Local Time) from KLNL Reporting Station
Overcast Overcast  
Wind Chill: 12°   Ceiling: 5000
Heat Index: 12°   Visibility: 10mi
Dew Point:   Wind: 3mph
Humidity: 76%   Direction: 200°SSW
Pressure: 29.88"   Gusts: NA
Location:  46.5°N, 88.71°W
Report Text: KLNL 260835Z AUTO 20003KT 10SM OVC050 M11/M14 A2988 RMK AO2 T11101145
Loading
Personal Weather Stations






























Interactive Weather Map New forecast layout! Learn more

10-Day Weather Forecast

Advertisements
Track Severe Weather on mobile